Thursday, November 23, 2017, 1:30 PM EST
Back to Local

KPBG, Plattsburgh International Airport

Location: Plattsburgh, NY, United States Lat: 44.65
Local Time: 1:30 PM EST (18:30 GMT) Lon: -73.467
Time Zone: US/Eastern Elev: 239 ft

Show me the last for .
Show Decoded

2017-11-23 12:53 METAR KPBG 231753Z AUTO 14008KT 10SM CLR M01/M08 A3001 RMK AO2 SLP167 T10111083
                 11006 21072 56033 =
2017-11-23 11:53 METAR KPBG 231653Z AUTO 19003KT 10SM CLR M02/M11 A3004 RMK AO2 SLP177 T10171106
                 =
2017-11-23 10:53 METAR KPBG 231553Z AUTO VRB05KT 10SM CLR M02/M11 A3007 RMK AO2 SLP187 T10171111
                 =
2017-11-23 09:53 METAR KPBG 231453Z AUTO 00000KT 10SM CLR M03/M11 A3011 RMK AO2 SLP200 T10281111
                 58007 =
2017-11-23 08:53 METAR KPBG 231353Z AUTO 31004KT 10SM CLR M05/M11 A3012 RMK AO2 SLP203 T10501111
                 =
2017-11-23 07:53 METAR KPBG 231253Z AUTO 30003KT 10SM CLR M06/M12 A3013 RMK AO2 SLP208 T10561117
                 =
2017-11-23 06:53 METAR KPBG 231153Z AUTO 00000KT 10SM CLR M07/M12 A3013 RMK AO2 SLP207 70008
                 T10671122 11044 21072 51004 =
2017-11-23 05:53 METAR KPBG 231053Z AUTO 00000KT 10SM CLR M07/M12 A3013 RMK AO2 SLP206 T10671117
                 =
2017-11-23 04:53 METAR KPBG 230953Z AUTO 26003KT 10SM CLR M07/M12 A3012 RMK AO2 SLP205 T10671117
                 =
2017-11-23 03:53 METAR KPBG 230853Z AUTO 00000KT 10SM CLR M06/M12 A3012 RMK AO2 SLP203 T10611122
                 51007 =
2017-11-23 02:53 METAR KPBG 230753Z AUTO 33006KT 10SM CLR M06/M12 A3012 RMK AO2 SLP202 T10561122
                 =
2017-11-23 01:53 METAR KPBG 230653Z AUTO 33014KT 10SM OVC033 M06/M12 A3011 RMK AO2 SLP201
                 T10561122 =
2017-11-23 00:53 METAR KPBG 230553Z AUTO 32013KT 10SM OVC033 M04/M12 A3010 RMK AO2 SLP195
                 T10391117 10006 21039 50003 =
2017-11-22 23:53 METAR KPBG 230453Z AUTO 31008KT 10SM OVC034 M03/M10 A3010 RMK AO2 SLP195
                 T10281100 400611028 =
2017-11-22 22:53 METAR KPBG 230353Z AUTO 32007G17KT 10SM OVC031 M02/M09 A3009 RMK AO2 SLP191
                 T10221089 =
2017-11-22 21:53 METAR KPBG 230253Z AUTO 32011KT 10SM SCT034 M02/M08 A3009 RMK AO2 SLP191
                 T10221083 51013 =
2017-11-22 20:53 METAR KPBG 230153Z AUTO 30010G19KT 10SM BKN036 M01/M08 A3008 RMK AO2 SLP188
                 T10111078 =
2017-11-22 19:53 METAR KPBG 230053Z AUTO 31006KT 10SM SCT036 OVC050 00/M06 A3007 RMK AO2 SLP186
                 T00001056 =
2017-11-22 18:53 METAR KPBG 222353Z AUTO 30009G18KT 10SM OVC055 01/M05 A3005 RMK AO2 SLP178
                 T00061050 10044 20006 53019 =
2017-11-22 17:53 METAR KPBG 222253Z AUTO 31009KT 10SM OVC050 01/M04 A3003 RMK AO2 SLP173
                 T00111039 =
2017-11-22 16:53 METAR KPBG 222153Z AUTO 32007KT 10SM OVC055 02/M03 A3001 RMK AO2 SLP163
                 T00221028 =
2017-11-22 15:53 METAR KPBG 222053Z AUTO 32012KT 10SM FEW031 BKN050 OVC060 03/M02 A2999 RMK AO2
                 SLP159 T00281017 53013 =
2017-11-22 14:53 METAR KPBG 221953Z AUTO 30005KT 10SM SCT045 OVC060 04/M02 A2997 RMK AO2 SLP150
                 T00391017 =
2017-11-22 13:53 METAR KPBG 221853Z AUTO 00000KT 10SM OVC044 04/01 A2995 RMK AO2 SLP145 T00440011
                 =

Support USWX by starting your Amazon purchase here.